Terminal Aerodrome Forecast
Issued by NWS Shreveport, LA

Home | Current Version | Previous Version | Text Only | Print | Product List | Glossary On
Versions: 1 2 3 4 5 6 7 8 9 10 11 12 13 14 15 16 17 18 19 20 21 22
000
FTUS44 KSHV 021500 AAB
TAFLFK
TAF AMD
KLFK 021526Z 0215/0312 18010KT P6SM SCT020 BKN040
      TEMPO 0215/0218 5SM HZ BKN015 OVC025
     FM022100 18012KT P6SM VCTS BKN050CB
     FM030000 17008KT P6SM SCT050 BKN250
     FM030500 23006KT P6SM BKN020 OVC250
     FM030700 29008KT 5SM -TSRA BKN010CB OVC025=

USA.gov is the U.S. government's official web portal to all federal, state and local government web resources and services.